createdAt,value
2022-12-03T00:00:36.953Z,-1.41
2022-12-03T00:03:03.635Z,-1.54
2022-12-03T00:05:30.168Z,-1.47
2022-12-03T00:07:56.774Z,-1.48
2022-12-03T00:10:23.204Z,-1.53
2022-12-03T00:12:49.589Z,-1.44
2022-12-03T00:15:15.947Z,-1.54
2022-12-03T00:17:42.307Z,-1.55
2022-12-03T00:20:09.367Z,-1.48
2022-12-03T00:22:35.976Z,-1.26
2022-12-03T00:25:02.395Z,-1.47
2022-12-03T00:27:29.058Z,-1.49
2022-12-03T00:29:55.502Z,-1.41
2022-12-03T00:32:21.856Z,-1.74
2022-12-03T00:34:48.247Z,-1.52
2022-12-03T00:37:14.622Z,-1.59
2022-12-03T00:39:41.012Z,-1.56
2022-12-03T00:42:07.426Z,-1.37
2022-12-03T00:44:33.868Z,-1.61
2022-12-03T00:47:00.398Z,-1.45
2022-12-03T00:49:26.969Z,-1.46
2022-12-03T00:51:53.333Z,-1.53
2022-12-03T00:54:19.742Z,-1.58
2022-12-03T00:56:46.189Z,-1.47
2022-12-03T00:59:12.576Z,-1.53
2022-12-03T01:01:38.991Z,-1.65
2022-12-03T01:04:05.428Z,-1.58
2022-12-03T01:06:31.854Z,-1.61
2022-12-03T01:08:58.398Z,-1.27
2022-12-03T01:11:41.296Z,-1.29
2022-12-03T01:14:15.269Z,-1.33
2022-12-03T01:16:41.907Z,-1.46
2022-12-03T01:19:10.539Z,-1.33
2022-12-03T01:21:37.471Z,-1.12
2022-12-03T01:24:04.431Z,-1.12
2022-12-03T01:26:31.102Z,-1.46
2022-12-03T01:28:57.663Z,-1.61
2022-12-03T01:31:43.112Z,-1.49
2022-12-03T01:34:09.584Z,-1.32
2022-12-03T01:36:35.988Z,-1.41
2022-12-03T01:39:03.199Z,-1.37
2022-12-03T01:41:29.769Z,-1.25
2022-12-03T01:43:56.838Z,-1.28
2022-12-03T01:46:24.773Z,-1.50
2022-12-03T01:48:52.876Z,-1.37
2022-12-03T01:51:19.309Z,-1.49
2022-12-03T01:53:46.148Z,-1.65
2022-12-03T01:56:13.657Z,-1.37
2022-12-03T01:58:40.435Z,-1.59
2022-12-03T02:01:10.115Z,-1.51
2022-12-03T02:03:37.343Z,-1.36
2022-12-03T02:06:04.451Z,-1.64
2022-12-03T02:08:35.117Z,-1.69
2022-12-03T02:11:03.472Z,-1.77
2022-12-03T02:20:19.891Z,-1.32
2022-12-03T02:23:06.700Z,-1.63
2022-12-03T02:25:34.644Z,-1.70
2022-12-03T02:28:01.842Z,-1.62
2022-12-03T02:30:29.154Z,-1.55
2022-12-03T02:32:56.106Z,-1.28
2022-12-03T02:35:24.329Z,-1.41
2022-12-03T02:37:54.874Z,-1.69
2022-12-03T02:40:26.063Z,-1.60
2022-12-03T02:42:55.598Z,-1.62
2022-12-03T02:45:24.180Z,-1.51
2022-12-03T02:47:52.844Z,-1.53
2022-12-03T02:50:21.660Z,-1.56
2022-12-03T02:52:48.583Z,-1.41
2022-12-03T02:55:16.125Z,-1.39
2022-12-03T02:57:44.730Z,-1.48
2022-12-03T03:00:11.741Z,-1.46
2022-12-03T03:02:39.947Z,-1.49
2022-12-03T03:05:07.360Z,-1.42
2022-12-03T03:07:34.428Z,-1.51
2022-12-03T03:10:01.526Z,-1.51
2022-12-03T03:12:28.109Z,-1.35
2022-12-03T03:14:54.789Z,-1.63
2022-12-03T03:17:21.483Z,-1.47
2022-12-03T03:19:51.209Z,-1.47
2022-12-03T03:22:19.055Z,-1.72
2022-12-03T03:24:45.495Z,-1.45
2022-12-03T03:27:11.941Z,-1.41
2022-12-03T03:29:40.444Z,-1.48
2022-12-03T03:32:06.892Z,-1.54
2022-12-03T03:34:33.727Z,-1.51
2022-12-03T03:37:00.158Z,-1.42
2022-12-03T03:39:27.406Z,-1.56
2022-12-03T03:41:53.864Z,-1.63
2022-12-03T03:44:20.339Z,-1.57
2022-12-03T03:46:46.927Z,-1.62
2022-12-03T03:49:16.266Z,-1.65
2022-12-03T03:51:42.856Z,-1.41
2022-12-03T03:54:10.622Z,-1.40
2022-12-03T03:56:37.203Z,-1.41
2022-12-03T03:59:04.361Z,-1.53
2022-12-03T04:01:34.031Z,-1.43
2022-12-03T04:04:00.984Z,-1.57
2022-12-03T04:06:27.854Z,-1.45
2022-12-03T04:08:54.268Z,-1.47
2022-12-03T04:11:39.433Z,-1.34
2022-12-03T04:14:05.808Z,-1.41
2022-12-03T04:16:32.204Z,-1.29
2022-12-03T04:18:58.702Z,-1.49
2022-12-03T04:21:43.742Z,-1.64
2022-12-03T04:24:10.932Z,-1.46
2022-12-03T04:26:56.050Z,-1.46
2022-12-03T04:29:22.969Z,-1.61
2022-12-03T04:32:07.978Z,-1.65
2022-12-03T04:34:53.259Z,-1.45
2022-12-03T04:37:21.403Z,-1.41
2022-12-03T04:39:50.273Z,-1.58
2022-12-03T04:42:16.821Z,-1.68
2022-12-03T04:44:43.532Z,-1.46
2022-12-03T04:47:11.562Z,-1.59
2022-12-03T04:49:40.175Z,-1.51
2022-12-03T04:52:07.050Z,-1.37
2022-12-03T04:54:33.875Z,-1.46
2022-12-03T04:57:00.396Z,-1.30
2022-12-03T04:59:27.145Z,-1.33
2022-12-03T05:01:53.674Z,-1.47
2022-12-03T05:04:20.617Z,-1.27
2022-12-03T05:06:47.302Z,-1.30
2022-12-03T05:09:14.172Z,-1.20
2022-12-03T05:11:42.340Z,-1.55
2022-12-03T05:14:09.499Z,-1.51
2022-12-03T05:16:39.340Z,-1.56
2022-12-03T05:19:09.147Z,-1.46
2022-12-03T05:21:54.981Z,-1.60
2022-12-03T05:24:21.631Z,-1.32
2022-12-03T05:26:48.344Z,-1.61
2022-12-03T05:29:15.122Z,-1.41
2022-12-03T05:31:41.727Z,-1.29
2022-12-03T05:34:08.188Z,-1.21
2022-12-03T05:36:34.811Z,-1.27
2022-12-03T05:39:01.480Z,-1.27
2022-12-03T05:41:47.708Z,-1.50
2022-12-03T05:44:20.115Z,-1.50
2022-12-03T05:46:46.986Z,-1.65
2022-12-03T05:49:13.416Z,-1.54
2022-12-03T05:51:39.902Z,-1.54
2022-12-03T05:54:06.354Z,-1.36
2022-12-03T05:56:32.815Z,-1.49
2022-12-03T05:58:59.304Z,-1.42
2022-12-03T06:01:25.696Z,-1.28
2022-12-03T06:03:52.831Z,-1.26
2022-12-03T06:06:19.386Z,-1.28
2022-12-03T06:08:45.797Z,-1.29
2022-12-03T06:11:12.248Z,-1.36
2022-12-03T06:13:41.707Z,-1.44
2022-12-03T06:16:08.626Z,-1.56
2022-12-03T06:18:38.338Z,-1.62
2022-12-03T06:21:05.086Z,-1.65
2022-12-03T06:23:35.197Z,-1.51
2022-12-03T06:26:02.063Z,-1.72
2022-12-03T06:28:28.758Z,-1.82
2022-12-03T06:30:55.960Z,-1.44
2022-12-03T06:33:22.606Z,-1.48
2022-12-03T06:35:49.218Z,-1.58
2022-12-03T06:38:15.852Z,-1.57
2022-12-03T06:40:44.565Z,-1.60
2022-12-03T06:43:16.185Z,-1.55
2022-12-03T06:45:47.564Z,-1.49
2022-12-03T06:48:15.098Z,-1.69
2022-12-03T06:50:41.672Z,-1.47
2022-12-03T06:53:08.650Z,-1.47
2022-12-03T06:55:35.597Z,-1.35
2022-12-03T06:58:05.042Z,-1.47
2022-12-03T07:00:39.590Z,-1.54
2022-12-03T07:03:06.588Z,-1.39
2022-12-03T07:05:37.713Z,-1.47
2022-12-03T07:11:48.365Z,-1.63
2022-12-03T07:14:15.367Z,-1.53
2022-12-03T07:16:45.494Z,-1.77
2022-12-03T07:19:33.006Z,-1.64
2022-12-03T07:22:06.671Z,-1.61
2022-12-03T07:24:35.759Z,-1.50
2022-12-03T07:27:09.669Z,-1.67
2022-12-03T07:29:37.829Z,-1.78
2022-12-03T07:32:19.233Z,-1.59
2022-12-03T07:34:48.459Z,-1.62
2022-12-03T07:37:22.672Z,-1.57
2022-12-03T07:39:52.876Z,-1.45
2022-12-03T07:42:37.432Z,-1.52
2022-12-03T07:45:20.900Z,-1.60
2022-12-03T07:48:16.743Z,-1.58
2022-12-03T07:51:32.830Z,-1.58
2022-12-03T07:54:01.226Z,-1.48
2022-12-03T07:56:27.650Z,-1.70
2022-12-03T07:58:58.776Z,-1.82
2022-12-03T08:01:25.429Z,-1.70
2022-12-03T08:03:51.992Z,-1.69
2022-12-03T08:06:18.673Z,-1.78
2022-12-03T08:08:45.147Z,-1.78
2022-12-03T08:11:25.931Z,-1.69
2022-12-03T08:13:53.017Z,-1.91
2022-12-03T08:16:21.492Z,-1.95
2022-12-03T08:18:57.705Z,-2.04
2022-12-03T08:21:24.596Z,-1.73
2022-12-03T08:23:51.449Z,-1.67
2022-12-03T08:26:28.512Z,-1.58
2022-12-03T08:29:04.692Z,-1.86
2022-12-03T08:31:41.270Z,-1.88
2022-12-03T08:34:16.767Z,-1.78
2022-12-03T08:36:43.892Z,-1.64
2022-12-03T08:39:31.209Z,-1.70
2022-12-03T08:42:32.312Z,-1.42
2022-12-03T08:45:18.962Z,-1.43
2022-12-03T08:47:45.611Z,-1.74
2022-12-03T08:50:26.747Z,-1.60
2022-12-03T08:52:55.952Z,-1.57
2022-12-03T08:56:04.440Z,-1.52
2022-12-03T08:58:36.996Z,-1.27
2022-12-03T09:01:16.544Z,-1.61
2022-12-03T09:04:01.931Z,-1.56
2022-12-03T09:06:28.981Z,-1.58
2022-12-03T09:09:07.848Z,-1.73
2022-12-03T09:15:03.024Z,-1.60
2022-12-03T09:17:29.711Z,-1.66
2022-12-03T09:19:56.167Z,-1.60
2022-12-03T09:22:22.846Z,-1.73
2022-12-03T09:24:49.281Z,-1.80
2022-12-03T09:27:18.976Z,-1.54
2022-12-03T09:29:45.771Z,-1.53
2022-12-03T09:32:17.945Z,-1.36
2022-12-03T09:34:44.912Z,-1.41
2022-12-03T09:37:17.869Z,-1.31
2022-12-03T09:39:44.454Z,-1.77
2022-12-03T09:42:13.094Z,-1.62
2022-12-03T09:44:54.679Z,-1.27
2022-12-03T09:47:28.478Z,-1.55
2022-12-03T09:49:56.879Z,-1.45
2022-12-03T09:52:30.968Z,-1.61
2022-12-03T09:55:02.800Z,-1.76
2022-12-03T10:08:19.007Z,-1.60
2022-12-03T10:10:56.217Z,-1.51
2022-12-03T10:13:28.710Z,-1.19
2022-12-03T10:23:00.105Z,-1.42
2022-12-03T10:58:24.319Z,-1.30
2022-12-03T11:01:11.254Z,-1.29
2022-12-03T11:03:40.630Z,-1.15
2022-12-03T11:09:36.148Z,-1.18
2022-12-03T11:12:06.544Z,-1.02
2022-12-03T11:14:55.016Z,-1.04
2022-12-03T11:17:49.993Z,-1.05
2022-12-03T11:20:25.667Z,-1.06
2022-12-03T11:22:53.083Z,-1.11
2022-12-03T11:25:27.814Z,-0.99
2022-12-03T11:28:15.840Z,-1.01
2022-12-03T11:30:51.582Z,-0.81
2022-12-03T11:33:22.035Z,-1.06
2022-12-03T11:36:05.069Z,-1.02
2022-12-03T11:38:37.786Z,-0.81
2022-12-03T11:41:24.910Z,-1.03
2022-12-03T11:43:57.663Z,-0.72
2022-12-03T11:46:36.786Z,-1.02
2022-12-03T11:49:05.540Z,-0.84
2022-12-03T11:51:38.361Z,-1.01
2022-12-03T11:54:08.420Z,-0.86
2022-12-03T11:56:36.546Z,-0.95
2022-12-03T11:59:12.845Z,-0.78
2022-12-03T12:01:40.965Z,-0.57
2022-12-03T12:04:08.694Z,-0.76
2022-12-03T12:06:42.705Z,-0.80
2022-12-03T12:09:09.998Z,-0.81
2022-12-03T12:11:40.052Z,-1.20
2022-12-03T12:14:07.888Z,-0.91
2022-12-03T12:16:42.649Z,-1.03
2022-12-03T12:19:27.992Z,-0.99
2022-12-03T12:21:54.821Z,-0.99
2022-12-03T12:24:33.650Z,-0.87
2022-12-03T12:27:06.723Z,-1.11
2022-12-03T12:29:33.599Z,-0.90
2022-12-03T12:32:20.312Z,-0.82
2022-12-03T12:34:47.892Z,-0.94
2022-12-03T12:37:32.023Z,-1.03
2022-12-03T12:39:58.798Z,-1.13
2022-12-03T12:42:30.462Z,-1.01
2022-12-03T12:44:58.840Z,-0.81
2022-12-03T12:47:25.422Z,-0.93
2022-12-03T12:49:55.328Z,-1.11
2022-12-03T12:52:22.091Z,-1.15
2022-12-03T12:54:51.340Z,-0.90
2022-12-03T13:01:08.762Z,-0.84
2022-12-03T13:03:37.229Z,-0.96
2022-12-03T13:06:04.183Z,-0.94
2022-12-03T13:08:38.843Z,-0.77
2022-12-03T13:11:05.857Z,-0.96
2022-12-03T13:13:43.601Z,-0.93
2022-12-03T13:16:44.767Z,-1.01
2022-12-03T13:19:23.590Z,-1.02
2022-12-03T13:22:04.738Z,-0.98
2022-12-03T13:24:36.760Z,-1.13
2022-12-03T13:27:23.925Z,-1.01
2022-12-03T13:29:55.365Z,-1.11
2022-12-03T13:32:23.296Z,-1.12
2022-12-03T13:34:58.507Z,-0.94
2022-12-03T13:37:28.462Z,-1.16
2022-12-03T13:39:58.823Z,-1.16
2022-12-03T13:49:23.172Z,-1.21
2022-12-03T13:51:50.506Z,-1.12
2022-12-03T13:54:21.908Z,-1.29
2022-12-03T13:56:48.864Z,-1.27
2022-12-03T13:59:19.299Z,-1.12
2022-12-03T14:01:48.337Z,-1.29
2022-12-03T14:04:15.385Z,-1.27
2022-12-03T14:06:41.965Z,-1.08
2022-12-03T14:09:08.432Z,-1.22
2022-12-03T14:11:53.630Z,-1.17
2022-12-03T14:14:20.186Z,-1.03
2022-12-03T14:16:47.887Z,-1.11
2022-12-03T14:19:17.330Z,-0.98
2022-12-03T14:21:43.808Z,-1.24
2022-12-03T14:24:12.449Z,-1.23
2022-12-03T14:26:38.913Z,-1.43
2022-12-03T14:29:08.761Z,-1.44
2022-12-03T14:31:35.774Z,-1.30
2022-12-03T14:34:02.476Z,-1.33
2022-12-03T14:36:28.935Z,-1.39
2022-12-03T14:38:55.463Z,-1.40
2022-12-03T14:41:43.033Z,-1.18
2022-12-03T14:44:09.571Z,-1.37
2022-12-03T14:46:36.131Z,-1.27
2022-12-03T14:49:02.593Z,-1.15
2022-12-03T14:51:29.324Z,-1.23
2022-12-03T14:53:55.884Z,-0.99
2022-12-03T14:56:22.489Z,-1.19
2022-12-03T14:58:49.397Z,-1.12
2022-12-03T15:01:18.850Z,-1.30
2022-12-03T15:03:51.624Z,-1.48
2022-12-03T15:46:46.225Z,-1.31
2022-12-03T15:49:19.038Z,-1.22
2022-12-03T15:52:07.282Z,-1.23
2022-12-03T16:08:22.919Z,-1.36
2022-12-03T16:11:01.760Z,-1.37
2022-12-03T16:13:31.077Z,-1.24
2022-12-03T16:15:57.768Z,-1.26
2022-12-03T16:18:27.043Z,-1.19
2022-12-03T16:20:56.923Z,-1.19
2022-12-03T16:23:47.427Z,-1.36
2022-12-03T16:26:14.195Z,-1.32
2022-12-03T16:28:40.932Z,-1.36
2022-12-03T16:31:10.484Z,-1.30
2022-12-03T16:33:42.912Z,-1.18
2022-12-03T16:36:10.134Z,-1.13
2022-12-03T16:41:19.857Z,-1.20
2022-12-03T16:44:38.549Z,-1.08
2022-12-03T16:47:05.314Z,-1.19
2022-12-03T16:49:44.900Z,-1.08
2022-12-03T16:52:25.177Z,-1.24
2022-12-03T16:54:52.408Z,-1.25
2022-12-03T16:57:53.515Z,-1.22
2022-12-03T17:00:34.889Z,-1.14
2022-12-03T17:06:39.439Z,-1.03
2022-12-03T17:09:05.927Z,-0.99
2022-12-03T17:41:06.097Z,-1.05
2022-12-03T18:19:49.719Z,-0.94
2022-12-03T18:22:33.528Z,-1.01
2022-12-03T18:57:52.770Z,-0.75
2022-12-03T19:17:28.530Z,-0.92
2022-12-03T19:19:55.696Z,-0.72
2022-12-03T19:22:22.806Z,-0.97
2022-12-03T19:24:50.180Z,-0.82
2022-12-03T19:27:16.707Z,-0.76
2022-12-03T19:29:43.362Z,-0.86
2022-12-03T19:32:10.061Z,-0.80
2022-12-03T19:34:40.677Z,-0.73
2022-12-03T19:37:18.100Z,-0.69
2022-12-03T19:39:51.361Z,-0.75
2022-12-03T19:42:17.911Z,-0.91
2022-12-03T19:44:49.295Z,-0.94
2022-12-03T19:47:15.820Z,-0.85
2022-12-03T19:49:45.328Z,-0.78
2022-12-03T19:52:11.881Z,-0.84
2022-12-03T19:54:38.390Z,-0.67
2022-12-03T19:57:05.293Z,-0.82
2022-12-03T19:59:31.805Z,-0.74
2022-12-03T20:01:58.431Z,-0.97
2022-12-03T20:04:32.329Z,-0.94
2022-12-03T20:07:14.317Z,-0.69
2022-12-03T20:10:16.741Z,-0.71
2022-12-03T20:13:22.954Z,-0.49
2022-12-03T20:18:51.783Z,-0.69
2022-12-03T20:21:47.840Z,-0.67
2022-12-03T20:24:33.186Z,-0.75
2022-12-03T20:27:14.701Z,-0.74
2022-12-03T20:29:44.094Z,-0.70
2022-12-03T20:32:13.715Z,-0.79
2022-12-03T20:34:42.232Z,-0.78
2022-12-03T20:37:11.546Z,-0.65
2022-12-03T20:42:58.046Z,-0.77
2022-12-03T20:45:33.609Z,-0.69
2022-12-03T20:50:55.721Z,-0.79
2022-12-03T20:53:39.843Z,-0.77
2022-12-03T20:56:55.729Z,-0.75
2022-12-03T20:59:43.583Z,-0.69
2022-12-03T21:05:27.750Z,-0.74
2022-12-03T21:08:40.456Z,-0.77
2022-12-03T21:18:16.146Z,-0.67
2022-12-03T21:21:17.741Z,-0.70
2022-12-03T21:26:45.699Z,-0.68
2022-12-03T21:29:30.752Z,-0.63
2022-12-03T21:39:08.849Z,-0.68
2022-12-03T21:42:35.435Z,-0.76
2022-12-03T21:51:20.260Z,-0.69
2022-12-03T21:56:33.003Z,-0.72
2022-12-03T21:59:33.433Z,-0.71
2022-12-03T22:02:17.756Z,-0.75
2022-12-03T22:08:07.731Z,-0.70
2022-12-03T22:10:40.662Z,-0.79
2022-12-03T22:13:09.868Z,-0.86
2022-12-03T22:15:40.010Z,-0.82
2022-12-03T22:18:07.681Z,-0.64
2022-12-03T22:20:34.214Z,-0.91
2022-12-03T22:23:00.918Z,-0.69
2022-12-03T22:25:27.484Z,-0.70
2022-12-03T22:27:54.251Z,-0.54
2022-12-03T22:30:20.896Z,-0.44
2022-12-03T22:32:51.958Z,-0.58
2022-12-03T22:35:18.762Z,-0.56
2022-12-03T22:37:45.717Z,-0.78
2022-12-03T22:40:15.944Z,-0.51
2022-12-03T22:42:47.785Z,-0.46
2022-12-03T22:45:19.509Z,-0.61
2022-12-03T22:47:46.262Z,-0.56
2022-12-03T22:50:12.784Z,-0.54
2022-12-03T22:52:39.342Z,-0.62
2022-12-03T22:55:07.873Z,-0.67
2022-12-03T22:57:34.855Z,-0.52
2022-12-03T23:00:01.621Z,-0.52
2022-12-03T23:02:28.530Z,-0.51
2022-12-03T23:05:02.229Z,-0.57
2022-12-03T23:07:29.045Z,-0.45
2022-12-03T23:09:56.797Z,-0.43
2022-12-03T23:12:26.448Z,-0.46
2022-12-03T23:14:55.551Z,-0.44
2022-12-03T23:17:22.695Z,-0.49
2022-12-03T23:19:54.701Z,-0.54
2022-12-03T23:22:30.588Z,-0.55
2022-12-03T23:24:57.574Z,-0.31
2022-12-03T23:27:27.505Z,-0.46
2022-12-03T23:30:00.731Z,-0.43
2022-12-03T23:32:40.049Z,-0.62
2022-12-03T23:35:07.575Z,-0.48
2022-12-03T23:37:34.638Z,-0.52
2022-12-03T23:40:03.186Z,-0.71
2022-12-03T23:42:30.788Z,-0.62
2022-12-03T23:45:00.531Z,-0.63
2022-12-03T23:47:27.253Z,-0.61
2022-12-03T23:49:54.271Z,-0.51
2022-12-03T23:52:21.322Z,-0.46
2022-12-03T23:57:42.243Z,-0.53
